sensor_id;sensor_type;location;lat;lon;timestamp;pressure;altitude;pressure_sealevel;temperature;humidity
52319;BME280;38258;51.148;14.068;2023-08-17T00:00:57;98579.47;;;19.01;100.00
52319;BME280;38258;51.148;14.068;2023-08-17T00:03:24;98578.19;;;18.92;100.00
52319;BME280;38258;51.148;14.068;2023-08-17T00:05:50;98580.16;;;18.89;100.00
52319;BME280;38258;51.148;14.068;2023-08-17T00:08:17;98574.75;;;18.76;100.00
52319;BME280;38258;51.148;14.068;2023-08-17T00:10:46;98582.34;;;18.51;100.00
52319;BME280;38258;51.148;14.068;2023-08-17T00:13:13;98582.78;;;18.44;100.00
52319;BME280;38258;51.148;14.068;2023-08-17T00:15:40;98576.69;;;18.42;100.00
52319;BME280;38258;51.148;14.068;2023-08-17T00:18:07;98576.31;;;18.33;100.00
52319;BME280;38258;51.148;14.068;2023-08-17T00:20:34;98585.13;;;18.18;100.00
52319;BME280;38258;51.148;14.068;2023-08-17T00:23:00;98587.44;;;18.08;100.00
52319;BME280;38258;51.148;14.068;2023-08-17T00:25:27;98590.34;;;18.03;100.00
52319;BME280;38258;51.148;14.068;2023-08-17T00:27:55;98599.69;;;17.93;100.00
52319;BME280;38258;51.148;14.068;2023-08-17T00:30:22;98591.47;;;17.81;100.00
52319;BME280;38258;51.148;14.068;2023-08-17T00:32:49;98594.38;;;17.77;100.00
52319;BME280;38258;51.148;14.068;2023-08-17T00:35:18;98594.56;;;17.90;100.00
52319;BME280;38258;51.148;14.068;2023-08-17T00:37:45;98581.94;;;17.79;100.00
52319;BME280;38258;51.148;14.068;2023-08-17T00:40:12;98586.53;;;17.75;100.00
52319;BME280;38258;51.148;14.068;2023-08-17T00:42:40;98571.75;;;17.71;100.00
52319;BME280;38258;51.148;14.068;2023-08-17T00:45:09;98584.31;;;17.67;100.00
52319;BME280;38258;51.148;14.068;2023-08-17T00:47:38;98580.22;;;17.62;100.00
52319;BME280;38258;51.148;14.068;2023-08-17T00:50:12;98567.94;;;17.61;100.00
52319;BME280;38258;51.148;14.068;2023-08-17T00:52:41;98571.50;;;17.60;100.00
52319;BME280;38258;51.148;14.068;2023-08-17T00:55:09;98578.41;;;17.62;100.00
52319;BME280;38258;51.148;14.068;2023-08-17T00:57:37;98576.19;;;17.55;100.00
52319;BME280;38258;51.148;14.068;2023-08-17T01:00:07;98559.72;;;17.49;100.00
52319;BME280;38258;51.148;14.068;2023-08-17T01:02:36;98556.31;;;17.47;100.00
52319;BME280;38258;51.148;14.068;2023-08-17T01:05:04;98558.72;;;17.52;100.00
52319;BME280;38258;51.148;14.068;2023-08-17T01:07:31;98548.44;;;17.46;100.00
52319;BME280;38258;51.148;14.068;2023-08-17T01:10:00;98550.56;;;17.39;100.00
52319;BME280;38258;51.148;14.068;2023-08-17T01:12:32;98544.75;;;17.32;100.00
52319;BME280;38258;51.148;14.068;2023-08-17T01:15:07;98543.75;;;17.35;100.00
52319;BME280;38258;51.148;14.068;2023-08-17T01:17:43;98551.69;;;17.35;100.00
52319;BME280;38258;51.148;14.068;2023-08-17T01:20:14;98551.84;;;17.48;100.00
52319;BME280;38258;51.148;14.068;2023-08-17T01:22:45;98549.31;;;17.62;100.00
52319;BME280;38258;51.148;14.068;2023-08-17T01:25:14;98545.41;;;17.70;100.00
52319;BME280;38258;51.148;14.068;2023-08-17T01:27:42;98569.28;;;17.68;100.00
52319;BME280;38258;51.148;14.068;2023-08-17T01:30:18;98579.03;;;17.67;100.00
52319;BME280;38258;51.148;14.068;2023-08-17T01:32:49;98575.81;;;17.94;100.00
52319;BME280;38258;51.148;14.068;2023-08-17T01:35:27;98583.81;;;18.25;100.00
52319;BME280;38258;51.148;14.068;2023-08-17T01:37:58;98585.09;;;18.02;100.00
52319;BME280;38258;51.148;14.068;2023-08-17T01:40:28;98595.59;;;17.87;100.00
52319;BME280;38258;51.148;14.068;2023-08-17T01:42:55;98589.88;;;17.79;100.00
52319;BME280;38258;51.148;14.068;2023-08-17T01:45:23;98586.97;;;17.67;100.00
52319;BME280;38258;51.148;14.068;2023-08-17T01:47:50;98591.91;;;17.74;100.00
52319;BME280;38258;51.148;14.068;2023-08-17T01:50:17;98590.53;;;17.66;100.00
52319;BME280;38258;51.148;14.068;2023-08-17T01:52:44;98588.03;;;17.63;100.00
52319;BME280;38258;51.148;14.068;2023-08-17T01:55:11;98584.84;;;17.74;100.00
52319;BME280;38258;51.148;14.068;2023-08-17T01:57:39;98576.13;;;17.72;100.00
52319;BME280;38258;51.148;14.068;2023-08-17T02:00:07;98574.00;;;17.79;100.00
52319;BME280;38258;51.148;14.068;2023-08-17T02:02:39;98569.06;;;17.89;100.00
52319;BME280;38258;51.148;14.068;2023-08-17T02:05:07;98576.13;;;17.88;100.00
52319;BME280;38258;51.148;14.068;2023-08-17T02:07:34;98572.53;;;17.89;100.00
52319;BME280;38258;51.148;14.068;2023-08-17T02:10:01;98579.22;;;17.97;100.00
52319;BME280;38258;51.148;14.068;2023-08-17T02:12:28;98579.13;;;17.82;100.00
52319;BME280;38258;51.148;14.068;2023-08-17T02:14:56;98590.13;;;17.74;100.00
52319;BME280;38258;51.148;14.068;2023-08-17T02:17:23;98591.22;;;17.70;100.00
52319;BME280;38258;51.148;14.068;2023-08-17T02:19:50;98587.81;;;17.68;100.00
52319;BME280;38258;51.148;14.068;2023-08-17T02:22:17;98589.69;;;17.66;100.00
52319;BME280;38258;51.148;14.068;2023-08-17T02:24:43;98588.56;;;17.70;100.00
52319;BME280;38258;51.148;14.068;2023-08-17T02:27:12;98582.63;;;17.66;100.00
52319;BME280;38258;51.148;14.068;2023-08-17T02:29:39;98579.69;;;17.71;100.00
52319;BME280;38258;51.148;14.068;2023-08-17T02:32:07;98587.22;;;17.63;100.00
52319;BME280;38258;51.148;14.068;2023-08-17T02:34:34;98575.88;;;17.61;100.00
52319;BME280;38258;51.148;14.068;2023-08-17T02:37:00;98578.34;;;17.64;100.00
52319;BME280;38258;51.148;14.068;2023-08-17T02:39:27;98578.34;;;17.64;100.00
52319;BME280;38258;51.148;14.068;2023-08-17T02:41:54;98582.44;;;17.70;100.00
52319;BME280;38258;51.148;14.068;2023-08-17T02:44:21;98588.84;;;17.81;100.00
52319;BME280;38258;51.148;14.068;2023-08-17T02:46:47;98579.47;;;17.92;100.00
52319;BME280;38258;51.148;14.068;2023-08-17T02:49:15;98579.09;;;17.98;100.00
52319;BME280;38258;51.148;14.068;2023-08-17T02:51:42;98581.94;;;17.95;100.00
52319;BME280;38258;51.148;14.068;2023-08-17T02:54:09;98592.91;;;17.71;100.00
52319;BME280;38258;51.148;14.068;2023-08-17T02:56:36;98578.34;;;17.64;100.00
52319;BME280;38258;51.148;14.068;2023-08-17T02:59:03;98574.47;;;17.53;100.00
52319;BME280;38258;51.148;14.068;2023-08-17T03:01:30;98581.81;;;17.48;100.00
52319;BME280;38258;51.148;14.068;2023-08-17T03:03:57;98592.47;;;17.47;100.00
52319;BME280;38258;51.148;14.068;2023-08-17T03:06:25;98592.56;;;17.61;100.00
52319;BME280;38258;51.148;14.068;2023-08-17T03:08:52;98587.09;;;17.48;100.00
52319;BME280;38258;51.148;14.068;2023-08-17T03:11:20;98591.38;;;17.51;100.00
52319;BME280;38258;51.148;14.068;2023-08-17T03:13:47;98584.97;;;17.55;100.00
52319;BME280;38258;51.148;14.068;2023-08-17T03:16:14;98587.69;;;17.53;100.00
52319;BME280;38258;51.148;14.068;2023-08-17T03:18:41;98585.06;;;17.53;100.00
52319;BME280;38258;51.148;14.068;2023-08-17T03:21:08;98585.63;;;17.43;100.00
52319;BME280;38258;51.148;14.068;2023-08-17T03:23:37;98585.72;;;17.41;100.00
52319;BME280;38258;51.148;14.068;2023-08-17T03:26:04;98590.41;;;17.36;100.00
52319;BME280;38258;51.148;14.068;2023-08-17T03:28:31;98586.03;;;17.35;100.00
52319;BME280;38258;51.148;14.068;2023-08-17T03:30:58;98588.16;;;17.28;100.00
52319;BME280;38258;51.148;14.068;2023-08-17T03:33:25;98588.31;;;17.25;100.00
52319;BME280;38258;51.148;14.068;2023-08-17T03:35:52;98581.34;;;17.24;100.00
52319;BME280;38258;51.148;14.068;2023-08-17T03:38:20;98570.66;;;17.26;100.00
52319;BME280;38258;51.148;14.068;2023-08-17T03:40:48;98591.81;;;17.26;100.00
52319;BME280;38258;51.148;14.068;2023-08-17T03:43:15;98585.75;;;17.23;100.00
52319;BME280;38258;51.148;14.068;2023-08-17T03:45:42;98586.16;;;17.16;100.00
52319;BME280;38258;51.148;14.068;2023-08-17T03:48:09;98582.03;;;17.10;100.00
52319;BME280;38258;51.148;14.068;2023-08-17T03:50:36;98582.81;;;17.12;100.00
52319;BME280;38258;51.148;14.068;2023-08-17T03:53:04;98580.44;;;17.07;100.00
52319;BME280;38258;51.148;14.068;2023-08-17T03:55:31;98566.34;;;17.07;100.00
52319;BME280;38258;51.148;14.068;2023-08-17T03:57:59;98574.28;;;17.07;100.00
52319;BME280;38258;51.148;14.068;2023-08-17T04:00:26;98562.19;;;17.03;100.00
52319;BME280;38258;51.148;14.068;2023-08-17T04:02:56;98573.69;;;17.02;100.00
52319;BME280;38258;51.148;14.068;2023-08-17T04:05:23;98576.22;;;17.03;100.00
52319;BME280;38258;51.148;14.068;2023-08-17T04:07:50;98570.16;;;17.01;100.00
52319;BME280;38258;51.148;14.068;2023-08-17T04:10:16;98570.16;;;17.01;100.00
52319;BME280;38258;51.148;14.068;2023-08-17T04:12:43;98574.34;;;17.05;100.00
52319;BME280;38258;51.148;14.068;2023-08-17T04:15:11;98568.94;;;17.08;100.00
52319;BME280;38258;51.148;14.068;2023-08-17T04:17:38;98569.94;;;17.06;100.00
52319;BME280;38258;51.148;14.068;2023-08-17T04:20:06;98565.41;;;17.08;100.00
52319;BME280;38258;51.148;14.068;2023-08-17T04:22:34;98564.59;;;17.07;100.00
52319;BME280;38258;51.148;14.068;2023-08-17T04:25:01;98574.13;;;17.10;100.00
52319;BME280;38258;51.148;14.068;2023-08-17T04:27:27;98570.63;;;17.09;100.00
52319;BME280;38258;51.148;14.068;2023-08-17T04:29:54;98578.28;;;17.14;100.00
52319;BME280;38258;51.148;14.068;2023-08-17T04:32:23;98584.81;;;17.24;100.00
52319;BME280;38258;51.148;14.068;2023-08-17T04:34:50;98582.88;;;17.28;100.00
52319;BME280;38258;51.148;14.068;2023-08-17T04:37:17;98577.19;;;17.36;100.00
52319;BME280;38258;51.148;14.068;2023-08-17T04:39:44;98591.94;;;17.40;100.00
52319;BME280;38258;51.148;14.068;2023-08-17T04:42:18;98595.72;;;17.52;100.00
52319;BME280;38258;51.148;14.068;2023-08-17T04:44:45;98595.63;;;17.53;100.00
52319;BME280;38258;51.148;14.068;2023-08-17T04:47:12;98602.56;;;17.56;100.00
52319;BME280;38258;51.148;14.068;2023-08-17T04:49:40;98601.97;;;17.51;100.00
52319;BME280;38258;51.148;14.068;2023-08-17T04:52:07;98605.28;;;17.55;100.00
52319;BME280;38258;51.148;14.068;2023-08-17T04:54:33;98608.38;;;17.63;100.00
52319;BME280;38258;51.148;14.068;2023-08-17T04:57:01;98611.25;;;17.58;100.00
52319;BME280;38258;51.148;14.068;2023-08-17T04:59:29;98604.50;;;17.52;100.00
52319;BME280;38258;51.148;14.068;2023-08-17T05:01:56;98609.72;;;17.54;100.00
52319;BME280;38258;51.148;14.068;2023-08-17T05:04:22;98604.66;;;17.49;100.00
52319;BME280;38258;51.148;14.068;2023-08-17T05:06:51;98612.25;;;17.56;100.00
52319;BME280;38258;51.148;14.068;2023-08-17T05:09:18;98618.94;;;17.63;100.00
52319;BME280;38258;51.148;14.068;2023-08-17T05:11:45;98613.72;;;17.61;100.00
52319;BME280;38258;51.148;14.068;2023-08-17T05:14:12;98615.19;;;17.67;100.00
52319;BME280;38258;51.148;14.068;2023-08-17T05:16:39;98614.06;;;17.71;100.00
52319;BME280;38258;51.148;14.068;2023-08-17T05:19:06;98618.72;;;17.67;100.00
52319;BME280;38258;51.148;14.068;2023-08-17T05:21:34;98623.22;;;17.81;100.00
52319;BME280;38258;51.148;14.068;2023-08-17T05:24:04;98619.75;;;17.81;100.00
52319;BME280;38258;51.148;14.068;2023-08-17T05:26:31;98616.00;;;17.85;100.00
52319;BME280;38258;51.148;14.068;2023-08-17T05:28:58;98621.44;;;17.98;100.00
52319;BME280;38258;51.148;14.068;2023-08-17T05:31:26;98620.63;;;17.98;100.00
52319;BME280;38258;51.148;14.068;2023-08-17T05:33:53;98613.03;;;18.07;100.00
52319;BME280;38258;51.148;14.068;2023-08-17T05:36:22;98621.91;;;18.06;100.00
52319;BME280;38258;51.148;14.068;2023-08-17T05:38:49;98625.78;;;18.17;100.00
52319;BME280;38258;51.148;14.068;2023-08-17T05:41:18;98623.97;;;18.17;100.00
52319;BME280;38258;51.148;14.068;2023-08-17T05:43:44;98634.81;;;18.13;100.00
52319;BME280;38258;51.148;14.068;2023-08-17T05:46:11;98636.06;;;18.21;100.00
52319;BME280;38258;51.148;14.068;2023-08-17T05:48:38;98642.38;;;18.51;100.00
52319;BME280;38258;51.148;14.068;2023-08-17T05:51:06;98644.41;;;18.62;100.00
52319;BME280;38258;51.148;14.068;2023-08-17T05:53:33;98650.91;;;18.56;100.00
52319;BME280;38258;51.148;14.068;2023-08-17T05:56:00;98652.88;;;18.69;100.00
52319;BME280;38258;51.148;14.068;2023-08-17T05:58:28;98646.91;;;18.96;100.00
52319;BME280;38258;51.148;14.068;2023-08-17T06:01:04;98657.03;;;19.19;100.00
52319;BME280;38258;51.148;14.068;2023-08-17T06:03:30;98657.81;;;19.36;100.00
52319;BME280;38258;51.148;14.068;2023-08-17T06:05:57;98659.44;;;19.39;100.00
52319;BME280;38258;51.148;14.068;2023-08-17T06:08:24;98659.06;;;19.45;100.00
52319;BME280;38258;51.148;14.068;2023-08-17T06:10:51;98657.34;;;19.29;100.00
52319;BME280;38258;51.148;14.068;2023-08-17T06:13:18;98643.03;;;19.32;100.00
52319;BME280;38258;51.148;14.068;2023-08-17T06:15:46;98638.69;;;19.31;100.00
52319;BME280;38258;51.148;14.068;2023-08-17T06:18:13;98623.72;;;19.73;100.00
52319;BME280;38258;51.148;14.068;2023-08-17T06:20:40;98629.78;;;20.04;100.00
52319;BME280;38258;51.148;14.068;2023-08-17T06:23:06;98625.50;;;20.02;100.00
52319;BME280;38258;51.148;14.068;2023-08-17T06:25:33;98638.97;;;19.84;100.00
52319;BME280;38258;51.148;14.068;2023-08-17T06:28:00;98645.72;;;19.61;100.00
52319;BME280;38258;51.148;14.068;2023-08-17T06:30:27;98652.81;;;19.60;100.00
52319;BME280;38258;51.148;14.068;2023-08-17T06:32:55;98657.91;;;19.63;100.00
52319;BME280;38258;51.148;14.068;2023-08-17T06:35:22;98650.53;;;19.40;100.00
52319;BME280;38258;51.148;14.068;2023-08-17T06:37:49;98645.78;;;19.30;100.00
52319;BME280;38258;51.148;14.068;2023-08-17T06:40:16;98652.41;;;19.23;100.00
52319;BME280;38258;51.148;14.068;2023-08-17T06:42:43;98650.88;;;19.19;100.00
52319;BME280;38258;51.148;14.068;2023-08-17T06:45:10;98656.63;;;19.11;100.00
52319;BME280;38258;51.148;14.068;2023-08-17T06:47:36;98662.03;;;19.10;100.00
52319;BME280;38258;51.148;14.068;2023-08-17T06:50:05;98675.22;;;18.95;100.00
52319;BME280;38258;51.148;14.068;2023-08-17T06:52:32;98682.69;;;18.88;100.00
52319;BME280;38258;51.148;14.068;2023-08-17T06:54:59;98689.50;;;18.92;100.00
52319;BME280;38258;51.148;14.068;2023-08-17T06:57:26;98694.59;;;18.96;100.00
52319;BME280;38258;51.148;14.068;2023-08-17T06:59:54;98690.59;;;19.04;100.00
52319;BME280;38258;51.148;14.068;2023-08-17T07:02:21;98687.19;;;19.02;100.00
52319;BME280;38258;51.148;14.068;2023-08-17T07:04:47;98684.19;;;19.09;100.00
52319;BME280;38258;51.148;14.068;2023-08-17T07:07:15;98685.03;;;19.09;100.00
52319;BME280;38258;51.148;14.068;2023-08-17T07:09:42;98682.56;;;19.06;100.00
52319;BME280;38258;51.148;14.068;2023-08-17T07:12:09;98684.94;;;19.11;100.00
52319;BME280;38258;51.148;14.068;2023-08-17T07:14:36;98683.63;;;18.87;100.00
52319;BME280;38258;51.148;14.068;2023-08-17T07:17:02;98686.44;;;19.00;100.00
52319;BME280;38258;51.148;14.068;2023-08-17T07:19:29;98686.34;;;19.02;100.00
52319;BME280;38258;51.148;14.068;2023-08-17T07:21:56;98696.56;;;19.08;100.00
52319;BME280;38258;51.148;14.068;2023-08-17T07:24:24;98702.09;;;19.19;100.00
52319;BME280;38258;51.148;14.068;2023-08-17T07:26:51;98690.84;;;19.30;100.00
52319;BME280;38258;51.148;14.068;2023-08-17T07:29:18;98684.59;;;19.31;100.00
52319;BME280;38258;51.148;14.068;2023-08-17T07:31:45;98688.63;;;19.53;100.00
52319;BME280;38258;51.148;14.068;2023-08-17T07:34:11;98677.72;;;19.72;100.00
52319;BME280;38258;51.148;14.068;2023-08-17T07:36:38;98662.38;;;19.34;100.00
52319;BME280;38258;51.148;14.068;2023-08-17T07:39:05;98663.06;;;19.52;100.00
52319;BME280;38258;51.148;14.068;2023-08-17T07:41:33;98661.72;;;19.59;100.00
52319;BME280;38258;51.148;14.068;2023-08-17T07:44:00;98655.88;;;19.98;100.00
52319;BME280;38258;51.148;14.068;2023-08-17T07:46:27;98640.59;;;20.16;100.00
52319;BME280;38258;51.148;14.068;2023-08-17T07:48:54;98643.59;;;20.10;100.00
52319;BME280;38258;51.148;14.068;2023-08-17T07:51:20;98646.25;;;20.10;100.00
52319;BME280;38258;51.148;14.068;2023-08-17T07:53:47;98651.41;;;19.98;100.00
52319;BME280;38258;51.148;14.068;2023-08-17T07:56:14;98639.16;;;20.10;100.00
52319;BME280;38258;51.148;14.068;2023-08-17T07:58:42;98645.66;;;20.33;100.00
52319;BME280;38258;51.148;14.068;2023-08-17T08:01:09;98649.16;;;20.61;100.00
52319;BME280;38258;51.148;14.068;2023-08-17T08:03:35;98653.22;;;20.40;100.00
52319;BME280;38258;51.148;14.068;2023-08-17T08:06:02;98644.53;;;20.78;100.00
52319;BME280;38258;51.148;14.068;2023-08-17T08:08:29;98654.31;;;20.50;100.00
52319;BME280;38258;51.148;14.068;2023-08-17T08:10:56;98656.13;;;20.77;100.00
52319;BME280;38258;51.148;14.068;2023-08-17T08:13:22;98654.00;;;21.23;100.00
52319;BME280;38258;51.148;14.068;2023-08-17T08:15:50;98649.22;;;21.54;100.00
52319;BME280;38258;51.148;14.068;2023-08-17T08:18:17;98647.41;;;21.41;100.00
52319;BME280;38258;51.148;14.068;2023-08-17T08:20:44;98649.75;;;21.33;100.00
52319;BME280;38258;51.148;14.068;2023-08-17T08:23:11;98647.94;;;21.59;100.00
52319;BME280;38258;51.148;14.068;2023-08-17T08:25:37;98645.81;;;21.52;100.00
52319;BME280;38258;51.148;14.068;2023-08-17T08:28:05;98646.06;;;22.25;100.00
52319;BME280;38258;51.148;14.068;2023-08-17T08:30:31;98639.84;;;21.87;100.00
52319;BME280;38258;51.148;14.068;2023-08-17T08:33:00;98642.53;;;22.24;100.00
52319;BME280;38258;51.148;14.068;2023-08-17T08:35:27;98642.13;;;21.67;100.00
52319;BME280;38258;51.148;14.068;2023-08-17T08:37:54;98644.69;;;22.43;100.00
52319;BME280;38258;51.148;14.068;2023-08-17T08:40:27;98646.94;;;23.68;100.00
52319;BME280;38258;51.148;14.068;2023-08-17T08:42:54;98632.84;;;24.89;100.00
52319;BME280;38258;51.148;14.068;2023-08-17T08:45:21;98645.59;;;23.74;100.00
52319;BME280;38258;51.148;14.068;2023-08-17T08:47:49;98646.88;;;24.37;100.00
52319;BME280;38258;51.148;14.068;2023-08-17T08:50:19;98636.13;;;25.35;100.00
52319;BME280;38258;51.148;14.068;2023-08-17T08:52:53;98643.47;;;25.11;100.00
52319;BME280;38258;51.148;14.068;2023-08-17T08:55:24;98644.53;;;24.88;100.00
52319;BME280;38258;51.148;14.068;2023-08-17T08:57:53;98643.41;;;26.16;100.00
52319;BME280;38258;51.148;14.068;2023-08-17T09:00:21;98645.94;;;26.08;100.00
52319;BME280;38258;51.148;14.068;2023-08-17T09:02:48;98648.44;;;26.70;100.00
52319;BME280;38258;51.148;14.068;2023-08-17T09:05:17;98641.31;;;26.20;100.00
52319;BME280;38258;51.148;14.068;2023-08-17T09:07:45;98642.75;;;25.09;100.00
52319;BME280;38258;51.148;14.068;2023-08-17T09:10:14;98646.16;;;25.95;100.00
52319;BME280;38258;51.148;14.068;2023-08-17T09:12:44;98645.69;;;25.49;100.00
52319;BME280;38258;51.148;14.068;2023-08-17T09:15:11;98659.72;;;25.93;100.00
52319;BME280;38258;51.148;14.068;2023-08-17T09:17:38;98658.63;;;24.57;100.00
52319;BME280;38258;51.148;14.068;2023-08-17T09:20:06;98652.06;;;25.36;100.00
52319;BME280;38258;51.148;14.068;2023-08-17T09:22:39;98654.44;;;25.08;100.00
52319;BME280;38258;51.148;14.068;2023-08-17T09:25:07;98650.00;;;24.53;100.00
52319;BME280;38258;51.148;14.068;2023-08-17T09:27:34;98650.16;;;24.40;100.00
52319;BME280;38258;51.148;14.068;2023-08-17T09:30:03;98652.84;;;24.73;100.00
52319;BME280;38258;51.148;14.068;2023-08-17T09:32:30;98642.53;;;25.01;100.00
52319;BME280;38258;51.148;14.068;2023-08-17T09:35:00;98647.66;;;25.25;100.00
52319;BME280;38258;51.148;14.068;2023-08-17T09:37:27;98644.88;;;25.16;100.00
52319;BME280;38258;51.148;14.068;2023-08-17T09:39:55;98639.06;;;24.89;100.00
52319;BME280;38258;51.148;14.068;2023-08-17T09:42:22;98637.47;;;25.72;100.00
52319;BME280;38258;51.148;14.068;2023-08-17T09:44:51;98631.38;;;26.71;100.00
52319;BME280;38258;51.148;14.068;2023-08-17T09:47:18;98629.97;;;26.06;100.00
52319;BME280;38258;51.148;14.068;2023-08-17T09:49:48;98632.56;;;25.77;100.00
52319;BME280;38258;51.148;14.068;2023-08-17T09:52:15;98630.50;;;25.90;100.00
52319;BME280;38258;51.148;14.068;2023-08-17T09:54:42;98628.19;;;25.76;100.00
52319;BME280;38258;51.148;14.068;2023-08-17T09:57:12;98626.31;;;26.17;100.00
52319;BME280;38258;51.148;14.068;2023-08-17T09:59:39;98627.28;;;26.67;100.00
52319;BME280;38258;51.148;14.068;2023-08-17T10:02:12;98629.59;;;27.49;100.00
52319;BME280;38258;51.148;14.068;2023-08-17T10:04:44;98625.22;;;27.38;99.07
52319;BME280;38258;51.148;14.068;2023-08-17T10:07:17;98614.47;;;28.14;95.00
52319;BME280;38258;51.148;14.068;2023-08-17T10:09:49;98609.84;;;28.70;98.20
52319;BME280;38258;51.148;14.068;2023-08-17T10:12:23;98613.34;;;27.41;98.16
52319;BME280;38258;51.148;14.068;2023-08-17T10:14:55;98615.59;;;28.21;93.76
52319;BME280;38258;51.148;14.068;2023-08-17T10:17:26;98606.69;;;28.93;90.78
52319;BME280;38258;51.148;14.068;2023-08-17T10:19:55;98606.06;;;29.26;89.80
52319;BME280;38258;51.148;14.068;2023-08-17T10:22:27;98599.47;;;28.11;87.81
52319;BME280;38258;51.148;14.068;2023-08-17T10:24:57;98608.91;;;27.12;96.49
52319;BME280;38258;51.148;14.068;2023-08-17T10:27:26;98606.75;;;27.73;92.67
52319;BME280;38258;51.148;14.068;2023-08-17T10:29:53;98606.78;;;28.65;90.27
52319;BME280;38258;51.148;14.068;2023-08-17T10:32:22;98612.56;;;27.20;94.98
52319;BME280;38258;51.148;14.068;2023-08-17T10:34:51;98605.31;;;28.71;94.92
52319;BME280;38258;51.148;14.068;2023-08-17T10:37:18;98616.47;;;27.36;98.03
52319;BME280;38258;51.148;14.068;2023-08-17T10:39:46;98606.72;;;27.35;100.00
52319;BME280;38258;51.148;14.068;2023-08-17T10:42:36;98597.25;;;28.53;98.56
52319;BME280;38258;51.148;14.068;2023-08-17T10:45:25;98606.97;;;29.08;95.18
52319;BME280;38258;51.148;14.068;2023-08-17T10:48:00;98592.88;;;30.18;87.66
52319;BME280;38258;51.148;14.068;2023-08-17T10:50:27;98579.19;;;28.63;92.54
52319;BME280;38258;51.148;14.068;2023-08-17T10:52:54;98593.56;;;29.16;100.00
52319;BME280;38258;51.148;14.068;2023-08-17T10:55:36;98589.66;;;28.84;92.58
52319;BME280;38258;51.148;14.068;2023-08-17T10:58:04;98588.84;;;28.38;97.13
52319;BME280;38258;51.148;14.068;2023-08-17T11:00:34;98580.06;;;29.34;95.52
52319;BME280;38258;51.148;14.068;2023-08-17T11:03:04;98584.56;;;30.71;90.28
52319;BME280;38258;51.148;14.068;2023-08-17T11:05:40;98583.53;;;29.53;85.80
52319;BME280;38258;51.148;14.068;2023-08-17T11:08:08;98582.38;;;29.56;89.21
52319;BME280;38258;51.148;14.068;2023-08-17T11:10:36;98594.34;;;30.72;92.46
52319;BME280;38258;51.148;14.068;2023-08-17T11:13:05;98580.59;;;30.16;86.66
52319;BME280;38258;51.148;14.068;2023-08-17T11:15:37;98582.56;;;29.36;92.29
52319;BME280;38258;51.148;14.068;2023-08-17T11:18:06;98579.50;;;29.04;90.79
52319;BME280;38258;51.148;14.068;2023-08-17T11:20:33;98575.56;;;28.36;94.91
52319;BME280;38258;51.148;14.068;2023-08-17T11:23:00;98574.25;;;28.76;92.94
52319;BME280;38258;51.148;14.068;2023-08-17T11:25:29;98581.50;;;29.02;88.72
52319;BME280;38258;51.148;14.068;2023-08-17T11:27:55;98575.88;;;28.87;91.68
52319;BME280;38258;51.148;14.068;2023-08-17T11:30:24;98562.28;;;29.24;88.92
52319;BME280;38258;51.148;14.068;2023-08-17T11:32:51;98571.53;;;29.82;89.14
52319;BME280;38258;51.148;14.068;2023-08-17T11:35:18;98569.84;;;28.75;89.72
52319;BME280;38258;51.148;14.068;2023-08-17T11:37:45;98570.72;;;30.74;90.96
52319;BME280;38258;51.148;14.068;2023-08-17T11:40:12;98571.19;;;31.03;84.17
52319;BME280;38258;51.148;14.068;2023-08-17T11:42:39;98565.53;;;30.05;82.95
52319;BME280;38258;51.148;14.068;2023-08-17T11:45:06;98558.50;;;30.12;79.27
52319;BME280;38258;51.148;14.068;2023-08-17T11:47:37;98566.41;;;31.38;75.89
52319;BME280;38258;51.148;14.068;2023-08-17T11:50:05;98559.09;;;31.64;84.33
52319;BME280;38258;51.148;14.068;2023-08-17T11:52:32;98562.78;;;30.65;84.59
52319;BME280;38258;51.148;14.068;2023-08-17T11:54:59;98558.19;;;30.32;83.48
52319;BME280;38258;51.148;14.068;2023-08-17T11:57:26;98555.59;;;29.28;86.02
52319;BME280;38258;51.148;14.068;2023-08-17T11:59:54;98552.66;;;30.42;88.85
52319;BME280;38258;51.148;14.068;2023-08-17T12:02:23;98554.00;;;29.86;85.54
52319;BME280;38258;51.148;14.068;2023-08-17T12:04:52;98537.00;;;29.94;88.04
52319;BME280;38258;51.148;14.068;2023-08-17T12:07:19;98546.28;;;30.00;87.88
52319;BME280;38258;51.148;14.068;2023-08-17T12:09:48;98542.66;;;30.34;88.12
52319;BME280;38258;51.148;14.068;2023-08-17T12:12:18;98537.13;;;30.44;80.62
52319;BME280;38258;51.148;14.068;2023-08-17T12:14:46;98542.84;;;30.49;80.63
52319;BME280;38258;51.148;14.068;2023-08-17T12:17:16;98534.25;;;30.29;83.98
52319;BME280;38258;51.148;14.068;2023-08-17T12:19:44;98531.03;;;30.83;82.83
52319;BME280;38258;51.148;14.068;2023-08-17T12:22:13;98524.66;;;30.43;78.35
52319;BME280;38258;51.148;14.068;2023-08-17T12:24:39;98522.44;;;30.88;81.80
52319;BME280;38258;51.148;14.068;2023-08-17T12:27:06;98520.59;;;30.88;72.36
52319;BME280;38258;51.148;14.068;2023-08-17T12:29:33;98519.06;;;29.68;76.46
52319;BME280;38258;51.148;14.068;2023-08-17T12:32:01;98519.06;;;30.11;75.72
52319;BME280;38258;51.148;14.068;2023-08-17T12:34:28;98524.44;;;30.19;71.57
52319;BME280;38258;51.148;14.068;2023-08-17T12:36:55;98514.13;;;29.47;68.96
52319;BME280;38258;51.148;14.068;2023-08-17T12:39:23;98506.13;;;29.37;75.69
52319;BME280;38258;51.148;14.068;2023-08-17T12:41:49;98505.34;;;29.45;71.57
52319;BME280;38258;51.148;14.068;2023-08-17T12:44:16;98508.34;;;29.76;72.55
52319;BME280;38258;51.148;14.068;2023-08-17T12:46:43;98507.16;;;29.79;66.23